createdAt,value
2019-04-25T00:03:01.186Z,8.00
2019-04-25T00:08:05.301Z,8.00
2019-04-25T00:13:09.285Z,7.90
2019-04-25T00:18:13.618Z,7.90
2019-04-25T00:23:18.759Z,8.10
2019-04-25T00:28:22.420Z,8.20
2019-04-25T00:33:26.150Z,8.30
2019-04-25T00:38:29.910Z,8.10
2019-04-25T00:43:34.003Z,7.90
2019-04-25T00:48:37.607Z,7.80
2019-04-25T00:53:42.651Z,7.90
2019-04-25T00:58:52.492Z,8.00
2019-04-25T01:03:56.550Z,7.60
2019-04-25T01:09:01.542Z,7.60
2019-04-25T01:14:05.794Z,7.50
2019-04-25T01:19:09.828Z,7.50
2019-04-25T01:24:14.101Z,7.70
2019-04-25T01:29:18.970Z,7.70
2019-04-25T01:34:25.780Z,7.70
2019-04-25T01:39:40.514Z,7.80
2019-04-25T01:44:51.814Z,7.60
2019-04-25T01:49:56.518Z,7.60
2019-04-25T01:55:00.333Z,7.70
2019-04-25T02:00:06.315Z,7.90
2019-04-25T02:05:11.115Z,7.80
2019-04-25T02:10:15.332Z,7.40
2019-04-25T02:15:20.724Z,7.50
2019-04-25T02:20:24.471Z,7.50
2019-04-25T02:25:28.189Z,7.70
2019-04-25T02:30:31.859Z,7.60
2019-04-25T02:35:35.511Z,7.60
2019-04-25T02:40:39.153Z,7.30
2019-04-25T02:45:44.867Z,7.00
2019-04-25T02:51:08.647Z,7.00
2019-04-25T02:56:27.422Z,7.40
2019-04-25T03:01:22.638Z,7.20
2019-04-25T03:06:24.995Z,7.00
2019-04-25T03:11:28.859Z,7.00
2019-04-25T03:16:34.614Z,7.00
2019-04-25T03:21:39.585Z,7.20
2019-04-25T03:26:44.324Z,7.30
2019-04-25T03:31:48.172Z,7.40
2019-04-25T03:36:53.633Z,7.50
2019-04-25T03:41:57.120Z,7.60
2019-04-25T03:47:00.986Z,7.60
2019-04-25T03:52:06.425Z,7.60
2019-04-25T03:57:10.387Z,7.70
2019-04-25T04:02:15.200Z,7.60
2019-04-25T04:07:18.919Z,7.60
2019-04-25T04:12:24.157Z,7.30
2019-04-25T04:17:29.533Z,7.30
2019-04-25T04:22:47.399Z,7.50
2019-04-25T04:27:50.995Z,7.60
2019-04-25T04:32:54.587Z,7.70
2019-04-25T04:37:58.451Z,8.00
2019-04-25T04:43:02.042Z,7.80
2019-04-25T04:48:05.724Z,7.60
2019-04-25T04:53:09.659Z,7.50
2019-04-25T04:58:15.015Z,7.50
2019-04-25T05:03:34.311Z,7.60
2019-04-25T05:08:43.557Z,7.50
2019-04-25T05:13:47.126Z,7.50
2019-04-25T05:18:50.736Z,7.60
2019-04-25T05:23:54.617Z,7.70
2019-04-25T05:28:58.208Z,7.80
2019-04-25T05:34:03.549Z,8.00
2019-04-25T05:39:09.764Z,8.10
2019-04-25T05:44:14.938Z,8.20
2019-04-25T05:49:19.298Z,8.40
2019-04-25T05:54:24.784Z,8.70
2019-04-25T05:59:28.740Z,8.50
2019-04-25T06:04:33.973Z,8.60
2019-04-25T06:09:39.353Z,9.10
2019-04-25T06:14:43.458Z,9.40
2019-04-25T06:19:48.669Z,9.80
2019-04-25T06:24:54.330Z,10.10
2019-04-25T06:30:00.965Z,10.40
2019-04-25T06:35:06.162Z,10.80
2019-04-25T06:40:10.404Z,11.20
2019-04-25T06:45:25.546Z,11.50
2019-04-25T06:50:30.270Z,11.40
2019-04-25T06:55:34.343Z,11.80
2019-04-25T07:00:42.607Z,11.90
2019-04-25T07:05:43.987Z,12.20
2019-04-25T07:10:47.817Z,12.50
2019-04-25T07:15:51.396Z,12.80
2019-04-25T07:20:55.059Z,13.00
2019-04-25T07:26:00.736Z,13.40
2019-04-25T07:31:06.093Z,13.40
2019-04-25T07:36:10.252Z,13.40
2019-04-25T07:41:15.905Z,13.70
2019-04-25T07:46:19.816Z,13.70
2019-04-25T07:51:23.734Z,13.90
2019-04-25T07:56:27.976Z,14.20
2019-04-25T08:01:33.758Z,14.20
2019-04-25T08:06:37.626Z,14.60
2019-04-25T08:11:41.570Z,14.60
2019-04-25T08:16:54.355Z,14.90
2019-04-25T08:21:58.879Z,15.10
2019-04-25T08:27:03.323Z,15.50
2019-04-25T08:32:07.637Z,15.80
2019-04-25T08:37:18.196Z,16.00
2019-04-25T08:42:16.459Z,16.60
2019-04-25T08:47:20.047Z,17.00
2019-04-25T08:52:24.380Z,17.40
2019-04-25T08:57:46.094Z,17.50
2019-04-25T09:02:54.488Z,17.50
2019-04-25T09:07:57.180Z,17.90
2019-04-25T09:13:01.266Z,18.20
2019-04-25T09:18:05.345Z,18.50
2019-04-25T09:23:09.135Z,18.80
2019-04-25T09:28:14.251Z,18.70
2019-04-25T09:33:17.969Z,19.20
2019-04-25T09:38:24.370Z,19.20
2019-04-25T09:43:27.408Z,19.60
2019-04-25T09:48:42.373Z,19.90
2019-04-25T09:53:50.984Z,20.40
2019-04-25T09:58:53.996Z,20.90
2019-04-25T10:03:57.620Z,21.10
2019-04-25T10:09:01.651Z,21.10
2019-04-25T10:14:27.696Z,20.90
2019-04-25T10:19:31.420Z,21.70
2019-04-25T10:24:35.318Z,22.50
2019-04-25T10:29:46.882Z,22.10
2019-04-25T10:34:45.883Z,22.80
2019-04-25T10:39:49.963Z,23.20
2019-04-25T10:44:56.138Z,22.50
2019-04-25T10:49:59.385Z,23.10
2019-04-25T10:55:04.174Z,23.70
2019-04-25T11:00:27.256Z,24.90
2019-04-25T11:05:31.135Z,25.00
2019-04-25T11:10:39.712Z,25.20
2019-04-25T11:15:44.939Z,25.30
2019-04-25T11:20:48.849Z,25.30
2019-04-25T11:25:54.199Z,25.80
2019-04-25T11:30:58.819Z,25.90
2019-04-25T11:36:04.210Z,26.40
2019-04-25T11:41:14.121Z,26.90
2019-04-25T11:46:21.304Z,26.90
2019-04-25T11:51:25.083Z,27.10
2019-04-25T11:56:28.857Z,26.90
2019-04-25T12:01:33.603Z,26.70
2019-04-25T12:06:37.793Z,27.10
2019-04-25T12:11:41.386Z,26.90
2019-04-25T12:16:48.488Z,27.10
2019-04-25T12:21:53.569Z,27.10
2019-04-25T12:26:56.657Z,27.20
2019-04-25T12:32:00.322Z,26.90
2019-04-25T12:37:04.184Z,26.40
2019-04-25T12:42:07.931Z,27.30
2019-04-25T12:47:15.805Z,27.00
2019-04-25T12:52:19.823Z,27.50
2019-04-25T12:57:24.258Z,27.40
2019-04-25T13:02:27.928Z,27.70
2019-04-25T13:07:31.513Z,27.30
2019-04-25T13:12:35.177Z,27.30
2019-04-25T13:17:39.149Z,27.30
2019-04-25T13:22:43.282Z,27.00
2019-04-25T13:27:58.469Z,27.40
2019-04-25T13:33:04.419Z,27.60
2019-04-25T13:38:08.632Z,27.90
2019-04-25T13:43:12.553Z,28.10
2019-04-25T13:48:16.541Z,27.80
2019-04-25T13:53:20.856Z,27.80
2019-04-25T13:58:25.517Z,27.60
2019-04-25T14:03:30.178Z,27.40
2019-04-25T14:08:33.771Z,27.30
2019-04-25T14:13:37.499Z,26.80
2019-04-25T14:18:48.994Z,26.20
2019-04-25T14:23:54.074Z,25.70
2019-04-25T14:28:57.812Z,25.20
2019-04-25T14:34:03.324Z,24.80
2019-04-25T14:39:08.221Z,24.20
2019-04-25T14:44:11.813Z,23.50
2019-04-25T14:49:15.745Z,23.50
2019-04-25T14:54:23.697Z,23.30
2019-04-25T14:59:27.365Z,23.40
2019-04-25T15:04:31.026Z,23.30
2019-04-25T15:09:35.379Z,23.60
2019-04-25T15:14:39.165Z,23.70
2019-04-25T15:19:42.826Z,23.70
2019-04-25T15:24:46.711Z,23.50
2019-04-25T15:29:50.306Z,23.30
2019-04-25T15:34:58.274Z,23.10
2019-04-25T15:40:03.655Z,22.90
2019-04-25T15:45:15.209Z,22.70
2019-04-25T15:50:19.314Z,22.10
2019-04-25T15:55:22.938Z,22.10
2019-04-25T16:00:36.671Z,22.40
2019-04-25T16:05:40.331Z,22.50
2019-04-25T16:10:43.941Z,22.90
2019-04-25T16:15:47.515Z,22.70
2019-04-25T16:20:51.257Z,22.80
2019-04-25T16:25:54.929Z,22.70
2019-04-25T16:30:58.601Z,22.20
2019-04-25T16:36:02.251Z,21.90
2019-04-25T16:41:06.341Z,21.60
2019-04-25T16:46:10.412Z,21.50
2019-04-25T16:51:14.762Z,21.40
2019-04-25T16:56:18.642Z,21.10
2019-04-25T17:01:22.365Z,21.10
2019-04-25T17:06:26.030Z,20.80
2019-04-25T17:11:30.702Z,20.20
2019-04-25T17:16:48.887Z,19.50
2019-04-25T17:21:52.916Z,19.00
2019-04-25T17:26:56.509Z,18.00
2019-04-25T17:32:16.953Z,17.40
2019-04-25T17:37:28.382Z,17.40
2019-04-25T17:42:32.489Z,17.10
2019-04-25T17:47:37.199Z,16.50
2019-04-25T17:52:41.158Z,16.40
2019-04-25T17:57:44.974Z,16.20
2019-04-25T18:02:58.312Z,16.00
2019-04-25T18:07:54.291Z,15.80
2019-04-25T18:12:57.890Z,15.50
2019-04-25T18:18:03.511Z,15.30
2019-04-25T18:23:08.817Z,15.20
2019-04-25T18:28:22.656Z,15.20
2019-04-25T18:33:30.507Z,15.00
2019-04-25T18:38:53.272Z,14.80
2019-04-25T18:44:01.610Z,14.70
2019-04-25T18:49:05.828Z,14.50
2019-04-25T18:54:17.511Z,14.30
2019-04-25T18:59:41.604Z,14.20
2019-04-25T19:04:52.095Z,14.10
2019-04-25T19:09:57.636Z,14.10
2019-04-25T19:15:03.072Z,14.10
2019-04-25T19:20:09.079Z,14.00
2019-04-25T19:30:27.371Z,14.20
2019-04-25T19:35:32.815Z,14.00
2019-04-25T19:40:39.606Z,13.80
2019-04-25T19:45:49.405Z,13.70
2019-04-25T19:50:55.097Z,13.50
2019-04-25T19:56:00.646Z,13.40
2019-04-25T20:01:04.549Z,13.00
2019-04-25T20:06:12.801Z,12.90
2019-04-25T20:11:24.368Z,12.70
2019-04-25T20:16:29.668Z,12.60
2019-04-25T20:21:33.729Z,12.30
2019-04-25T20:26:37.549Z,12.10
2019-04-25T20:31:41.568Z,12.00
2019-04-25T20:36:45.727Z,11.90
2019-04-25T20:41:49.757Z,11.90
2019-04-25T20:46:53.573Z,11.90
2019-04-25T20:51:57.613Z,12.00
2019-04-25T20:57:01.278Z,12.00
2019-04-25T21:02:06.400Z,11.90
2019-04-25T21:07:10.223Z,12.10
2019-04-25T21:12:14.170Z,12.30
2019-04-25T21:17:25.443Z,12.10
2019-04-25T21:22:29.035Z,12.30
2019-04-25T21:27:33.054Z,12.40
2019-04-25T21:32:41.277Z,12.50
2019-04-25T21:37:45.405Z,12.50
2019-04-25T21:42:53.900Z,12.60
2019-04-25T21:47:58.753Z,12.70
2019-04-25T21:53:03.243Z,12.90
2019-04-25T21:58:07.094Z,13.00
2019-04-25T22:03:11.300Z,13.20
2019-04-25T22:08:15.136Z,13.30
2019-04-25T22:13:18.735Z,13.00
2019-04-25T22:18:22.664Z,13.10
2019-04-25T22:23:26.422Z,12.70
2019-04-25T22:28:30.595Z,12.40
2019-04-25T22:33:51.317Z,12.10
2019-04-25T22:39:11.110Z,11.90
2019-04-25T22:44:16.985Z,11.70
2019-04-25T22:49:20.889Z,11.50
2019-04-25T22:54:25.560Z,11.60
2019-04-25T22:59:29.153Z,11.60
2019-04-25T23:04:46.569Z,11.50
2019-04-25T23:09:51.653Z,11.70
2019-04-25T23:14:55.608Z,11.40
2019-04-25T23:19:59.200Z,11.20
2019-04-25T23:25:05.065Z,11.40
2019-04-25T23:30:12.246Z,11.20
2019-04-25T23:35:27.901Z,11.50
2019-04-25T23:40:21.944Z,11.50
2019-04-25T23:45:25.521Z,11.40
2019-04-25T23:50:29.113Z,11.20
2019-04-25T23:55:32.713Z,11.10
